createdAt,value
2018-11-23T07:05:28.647Z,26.73
2018-11-23T07:07:59.044Z,32.47
2018-11-23T07:10:29.595Z,37.87
2018-11-23T07:12:59.447Z,38.70
2018-11-23T07:15:29.501Z,41.00
2018-11-23T07:17:59.759Z,29.30
2018-11-23T07:20:29.822Z,24.87
2018-11-23T07:22:59.695Z,23.20
2018-11-23T07:25:29.160Z,21.40
2018-11-23T07:27:58.790Z,21.97
2018-11-23T07:30:29.539Z,22.30
2018-11-23T07:32:59.637Z,20.40
2018-11-23T07:35:29.163Z,20.60
2018-11-23T07:37:58.799Z,19.30
2018-11-23T07:40:38.942Z,18.97
2018-11-23T07:43:08.581Z,19.77
2018-11-23T07:45:38.293Z,20.53
2018-11-23T07:48:08.355Z,17.13
2018-11-23T07:50:37.618Z,17.57
2018-11-23T07:53:07.178Z,18.13
2018-11-23T07:55:36.803Z,17.63
2018-11-23T07:58:07.399Z,16.70
2018-11-23T08:00:36.739Z,18.00
2018-11-23T08:03:06.475Z,17.87
2018-11-23T08:05:35.802Z,16.57
2018-11-23T08:08:06.682Z,16.73
2018-11-23T08:10:34.810Z,16.00
2018-11-23T08:13:04.293Z,16.03
2018-11-23T08:15:33.754Z,15.60
2018-11-23T08:18:03.430Z,17.77
2018-11-23T08:20:33.032Z,15.97
2018-11-23T08:23:03.653Z,16.47
2018-11-23T08:25:33.521Z,16.20
2018-11-23T08:28:03.838Z,20.37
2018-11-23T08:30:33.477Z,15.37
2018-11-23T08:33:03.862Z,16.23
2018-11-23T08:35:33.444Z,16.47
2018-11-23T08:38:03.031Z,16.20
2018-11-23T08:40:33.040Z,16.40
2018-11-23T08:43:03.149Z,17.87
2018-11-23T08:45:32.552Z,16.00
2018-11-23T08:48:02.302Z,16.60
2018-11-23T08:50:32.091Z,17.17
2018-11-23T08:53:01.486Z,17.77
2018-11-23T08:55:31.144Z,16.73
2018-11-23T08:58:00.522Z,18.67
2018-11-23T09:00:30.261Z,18.17
2018-11-23T09:03:01.695Z,17.57
2018-11-23T09:05:31.361Z,18.10
2018-11-23T09:08:00.844Z,18.73
2018-11-23T09:10:31.442Z,18.70
2018-11-23T09:13:02.549Z,18.50
2018-11-23T09:15:32.098Z,18.47
2018-11-23T09:18:01.732Z,18.40
2018-11-23T09:20:31.781Z,19.90
2018-11-23T09:23:01.357Z,20.60
2018-11-23T09:25:31.331Z,22.27
2018-11-23T09:28:00.809Z,20.47
2018-11-23T09:30:30.706Z,20.70
2018-11-23T09:33:00.245Z,22.52
2018-11-23T09:35:30.004Z,29.23
2018-11-23T09:37:59.628Z,25.50
2018-11-23T09:40:30.702Z,30.87
2018-11-23T09:43:00.031Z,34.40
2018-11-23T09:45:32.143Z,33.23
2018-11-23T09:48:03.216Z,37.40
2018-11-23T09:50:33.001Z,33.53
2018-11-23T09:53:04.151Z,34.20
2018-11-23T09:55:35.471Z,42.17
2018-11-23T09:58:05.620Z,36.33
2018-11-23T10:00:37.475Z,38.33
2018-11-23T10:03:07.430Z,38.10
2018-11-23T10:05:37.110Z,39.30
2018-11-23T10:08:07.829Z,39.80
2018-11-23T10:10:37.575Z,36.50
2018-11-23T10:13:07.353Z,37.20
2018-11-23T10:15:37.536Z,36.90
2018-11-23T10:18:06.882Z,36.00
2018-11-23T10:20:37.215Z,35.50
2018-11-23T10:23:06.872Z,39.80
2018-11-23T10:25:36.820Z,37.50
2018-11-23T10:28:06.082Z,35.73
2018-11-23T10:30:36.261Z,37.87
2018-11-23T10:33:07.010Z,38.37
2018-11-23T10:35:36.414Z,36.57
2018-11-23T10:38:06.552Z,34.43
2018-11-23T10:40:37.666Z,36.97
2018-11-23T10:43:07.888Z,34.43
2018-11-23T10:45:38.104Z,35.07
2018-11-23T10:48:08.451Z,33.53
2018-11-23T10:50:39.622Z,33.63
2018-11-23T10:53:09.187Z,34.50
2018-11-23T10:55:39.327Z,31.93
2018-11-23T10:58:08.530Z,32.87
2018-11-23T11:00:42.402Z,33.53
2018-11-23T11:03:16.229Z,30.60
2018-11-23T11:05:49.735Z,31.83
2018-11-23T11:08:19.091Z,30.23
2018-11-23T11:10:48.747Z,29.23
2018-11-23T11:13:18.590Z,35.17
2018-11-23T11:15:48.075Z,29.93
2018-11-23T11:18:17.551Z,29.73
2018-11-23T11:20:48.141Z,30.07
2018-11-23T11:23:17.805Z,30.80
2018-11-23T11:25:47.280Z,32.00
2018-11-23T11:28:17.003Z,30.90
2018-11-23T11:30:46.389Z,30.13
2018-11-23T11:33:16.046Z,29.60
2018-11-23T11:35:46.451Z,30.23
2018-11-23T11:38:16.380Z,30.57
2018-11-23T11:40:45.792Z,29.30
2018-11-23T11:43:15.415Z,28.27
2018-11-23T11:45:45.089Z,30.97
2018-11-23T11:48:14.925Z,27.83
2018-11-23T11:50:44.342Z,27.50
2018-11-23T11:53:14.120Z,28.33
2018-11-23T11:55:44.293Z,28.73
2018-11-23T11:58:13.410Z,30.50
2018-11-23T12:00:42.961Z,30.73
2018-11-23T12:03:12.704Z,32.03
2018-11-23T12:05:42.536Z,30.83
2018-11-23T12:08:12.031Z,37.60
2018-11-23T12:10:41.177Z,29.80
2018-11-23T12:13:11.063Z,30.57
2018-11-23T12:15:41.022Z,34.20
2018-11-23T12:18:10.787Z,29.50
2018-11-23T12:20:40.146Z,31.67
2018-11-23T12:23:10.199Z,31.67
2018-11-23T12:25:40.349Z,30.80
2018-11-23T12:28:10.057Z,32.73
2018-11-23T12:30:39.588Z,29.80
2018-11-23T12:33:08.915Z,32.70
2018-11-23T12:35:38.801Z,29.43
2018-11-23T12:38:08.029Z,30.43
2018-11-23T12:40:37.506Z,30.10
2018-11-23T12:43:07.467Z,28.40
2018-11-23T12:45:37.019Z,30.23
2018-11-23T12:48:06.619Z,30.20
2018-11-23T12:50:36.153Z,29.83
2018-11-23T12:53:06.526Z,34.10
2018-11-23T12:55:35.122Z,29.87
2018-11-23T12:58:04.993Z,28.30
2018-11-23T13:00:34.746Z,27.77
2018-11-23T13:03:05.487Z,28.50
2018-11-23T13:05:36.202Z,31.17
2018-11-23T13:08:07.165Z,27.20
2018-11-23T13:10:36.820Z,28.67
2018-11-23T13:13:06.855Z,31.93
2018-11-23T13:15:36.133Z,32.23
2018-11-23T13:18:05.582Z,34.97
2018-11-23T13:20:34.942Z,31.63
2018-11-23T13:23:04.595Z,34.40
2018-11-23T13:25:34.556Z,36.23
2018-11-23T13:28:04.694Z,36.40
2018-11-23T13:30:35.872Z,35.83
2018-11-23T13:33:06.226Z,34.83
2018-11-23T13:35:35.883Z,33.77
2018-11-23T13:38:05.909Z,36.00
2018-11-23T13:40:35.750Z,34.43
2018-11-23T13:43:05.271Z,33.53
2018-11-23T13:45:35.287Z,35.53
2018-11-23T13:48:04.496Z,35.67
2018-11-23T13:50:34.470Z,35.00
2018-11-23T13:53:03.800Z,31.43
2018-11-23T13:55:33.405Z,34.40
2018-11-23T13:58:02.943Z,37.37
2018-11-23T14:00:32.619Z,32.87
2018-11-23T14:03:02.058Z,34.63
2018-11-23T14:05:32.574Z,31.77
2018-11-23T14:08:02.879Z,34.17
2018-11-23T14:10:32.940Z,32.73
2018-11-23T14:13:02.225Z,30.90
2018-11-23T14:15:32.300Z,32.00
2018-11-23T14:18:02.411Z,28.67
2018-11-23T14:20:32.031Z,34.30
2018-11-23T14:23:01.474Z,29.40
2018-11-23T14:25:32.034Z,31.00
2018-11-23T14:28:01.607Z,30.73
2018-11-23T14:30:32.452Z,32.47
2018-11-23T14:33:02.774Z,34.60
2018-11-23T14:35:33.521Z,31.20
2018-11-23T14:38:03.974Z,31.23
2018-11-23T14:40:33.353Z,33.73
2018-11-23T14:43:02.770Z,33.97
2018-11-23T14:45:33.913Z,33.20
2018-11-23T14:48:05.366Z,34.57
2018-11-23T14:50:36.883Z,33.93
2018-11-23T14:53:06.162Z,33.33
2018-11-23T14:55:35.950Z,32.60
2018-11-23T14:58:05.719Z,34.50
2018-11-23T15:00:36.520Z,35.83
2018-11-23T15:03:07.725Z,31.30
2018-11-23T15:05:38.088Z,33.00
2018-11-23T15:08:08.693Z,31.93
2018-11-23T15:10:38.629Z,32.07
2018-11-23T15:13:08.334Z,30.17
2018-11-23T15:15:39.518Z,33.80
2018-11-23T15:18:09.589Z,31.53
2018-11-23T15:20:40.733Z,30.47
2018-11-23T15:23:11.628Z,28.67
2018-11-23T15:25:41.072Z,28.30
2018-11-23T15:28:11.411Z,28.07
2018-11-23T15:30:41.507Z,28.20
2018-11-23T15:33:14.063Z,31.07
2018-11-23T15:35:45.126Z,29.23
2018-11-23T15:38:17.408Z,30.57
2018-11-23T15:40:47.074Z,29.17
2018-11-23T15:43:18.148Z,31.23
2018-11-23T15:45:47.912Z,32.10
2018-11-23T15:48:17.581Z,29.97
2018-11-23T15:50:46.789Z,32.20
2018-11-23T15:53:17.068Z,31.53
2018-11-23T15:55:46.396Z,30.37
2018-11-23T15:58:17.067Z,31.63
2018-11-23T16:00:47.799Z,31.80
2018-11-23T16:03:17.940Z,33.50
2018-11-23T16:05:48.457Z,32.00
2018-11-23T16:08:19.538Z,32.50
